Portada
METAR-TAF:

METAR-TAF

Aeroports :

Kajaani, Finlàndia

latitud: 64-17N, longitud: 027-41E, altitud: 143 m

Observació

L'informe es va fer fa 24 minuts, a les 09:50 UTC
Vent 5 kt del Sud-Est
Temperatura -2°C
Humitat 86%
Pressió 1024 hPa
Visibilitat 10 km o més
Cel ennuvolat a una alçada de 600 ft

METAR: EFKI 310950Z AUTO 13005KT 9999 BKN006 M02/M04 Q1024

Hora: 12:14 (10:14 UTC)


TAF: manca

Observacions i pronòstics meteorològics de més de 4000 aeroports (METAR i TAF).

Les estacions disponibles són els punts grocs i vermells al mapa.

Posi el ratolí al punt desitjat per veure el nom de l'estació.

Feu clic per veure les observacions i els pronòstics meteorològics.

Per canviar el mapa: feu clic els botons verds amb una creu de color negre per apropar; al botó verd amb un guió per allunyar la imatge; o en les fletxes verdes per a mapes adjacents.


METAR-TAF: